Waukegan, IL (60079)

6:27 PM CST on December 04, 2016 (GMT -0600)
North Side, Waukegan | | Change Station

Elev 659 ft 42.37 °N, 87.83 °W | Updated 7 seconds ago

Light Snow
Light Snow Mist
32.9 °F
Feels Like 33 °F
N
0.0
Wind Variable Wind from SE
Gusts 0.0 mph

Today
High -- | Low -- °F
--% Chance of Precip.
Yesterday
High -- | Low -- °F
Precip. -- in
Pressure 29.92 in
Visibility 1.8 miles
Clouds Few 300 ft
Overcast 1900 ft
Windchill 33 °F
Dew Point 33 °F
Humidity 99%
Rainfall 0.00 in
Snow Depth Not available.
7:04 AM 4:18 PM
Waxing Crescent, 26% visible
METAR KUGN 042355Z 20005KT 1 3/4SM -SN BR FEW003 OVC019 00/M01 A2988 RMK AO2 SLP132 P0000 60030 T00001006 10006 20000 56005 $
Pressure 29.92 in
Visibility 1.8 miles
Clouds Few 300 ft
Overcast 1900 ft
Windchill 33 °F
Dew Point 33 °F
Humidity 99%
Rainfall 0.00 in
Snow Depth Not available.
7:04 AM 4:18 PM
Waxing Crescent, 26% visible
METAR KUGN 042355Z 20005KT 1 3/4SM -SN BR FEW003 OVC019 00/M01 A2988 RMK AO2 SLP132 P0000 60030 T00001006 10006 20000 56005 $

10-Day Weather Forecast

Almanac

Astronomy

Dec. 04, 2016 Rise Set
Actual Time
Civil Twilight
Nautical Twilight
Astronomical Twilight
Moon
Length of Visible Light
Length of Day
Tomorrow will be .
, % of the Moon is Illuminated

Today's Extremes

State Highs State Lows

Community

WunderPhotos

Upload Photos

1,955,724 photos uploaded!

WunderBlog® & News

Nearby

Air Quality

  Air Quality AQ Index Pollutant
Not available.

Snow Depth

Station Depth Elevation

Earthquake Activity

City Distance Mag. Time & Date
Minimum magnitude displayed is 2.5.

Coastal Water Temperatures

Place Temperature

Stations

Nearby Weather Stations

Station Location Temp. Windchill Dew Point Humidity Wind Precip. Elev Updated Type
                   

Watches & Warnings

There are currently no watches in effect.